createdAt,value
2022-08-24T00:02:58.898Z,6.35
2022-08-24T00:08:00.571Z,6.47
2022-08-24T00:13:02.218Z,6.75
2022-08-24T00:18:04.069Z,7.20
2022-08-24T00:23:06.760Z,6.82
2022-08-24T00:28:08.395Z,7.65
2022-08-24T00:33:10.124Z,7.40
2022-08-24T00:38:11.732Z,7.80
2022-08-24T00:43:13.779Z,7.43
2022-08-24T00:48:21.049Z,7.30
2022-08-24T00:53:33.839Z,7.63
2022-08-24T00:58:46.448Z,7.10
2022-08-24T01:03:57.130Z,7.65
2022-08-24T01:08:59.890Z,8.68
2022-08-24T01:14:03.505Z,8.20
2022-08-24T01:19:09.516Z,7.85
2022-08-24T01:24:12.704Z,7.70
2022-08-24T01:29:17.630Z,7.05
2022-08-24T01:34:21.416Z,8.10
2022-08-24T01:39:45.985Z,7.47
2022-08-24T01:44:48.072Z,7.53
2022-08-24T01:49:50.444Z,7.95
2022-08-24T01:54:55.880Z,7.43
2022-08-24T01:59:58.985Z,8.00
2022-08-24T02:05:00.860Z,8.35
2022-08-24T02:10:03.509Z,7.15
2022-08-24T02:15:07.901Z,8.57
2022-08-24T02:20:09.972Z,7.25
2022-08-24T02:25:11.745Z,8.20
2022-08-24T02:30:16.370Z,6.70
2022-08-24T02:35:18.316Z,7.18
2022-08-24T02:40:21.817Z,8.18
2022-08-24T02:45:24.668Z,7.50
2022-08-24T02:50:27.656Z,7.38
2022-08-24T02:55:29.311Z,7.70
2022-08-24T03:00:31.746Z,7.35
2022-08-24T03:05:34.134Z,8.20
2022-08-24T03:10:36.287Z,7.97
2022-08-24T03:15:39.390Z,9.48
2022-08-24T03:20:41.124Z,9.25
2022-08-24T03:25:43.113Z,9.50
2022-08-24T03:30:48.431Z,9.95
2022-08-24T03:35:52.442Z,10.43
2022-08-24T03:40:56.767Z,9.00
2022-08-24T03:45:59.246Z,8.02
2022-08-24T03:51:01.043Z,8.18
2022-08-24T03:56:06.970Z,8.90
2022-08-24T04:01:10.202Z,8.70
2022-08-24T04:06:13.892Z,8.23
2022-08-24T04:11:20.706Z,7.95
2022-08-24T04:16:23.194Z,8.52
2022-08-24T04:21:35.358Z,8.43
2022-08-24T04:26:45.115Z,9.18
2022-08-24T04:31:49.164Z,8.63
2022-08-24T04:36:51.338Z,8.02
2022-08-24T04:41:53.319Z,7.90
2022-08-24T04:46:56.762Z,8.45
2022-08-24T04:51:58.588Z,8.60
2022-08-24T04:57:00.641Z,7.97
2022-08-24T05:02:02.451Z,9.75
2022-08-24T05:07:05.113Z,8.05
2022-08-24T05:12:08.057Z,8.95
2022-08-24T05:17:13.543Z,8.07
2022-08-24T05:22:15.119Z,8.13
2022-08-24T05:27:22.699Z,8.52
2022-08-24T05:32:27.096Z,9.48
2022-08-24T05:37:29.900Z,8.45
2022-08-24T05:42:50.583Z,8.85
2022-08-24T05:47:52.770Z,9.55
2022-08-24T05:53:24.736Z,8.63
2022-08-24T05:58:31.183Z,9.68
2022-08-24T06:03:37.424Z,9.80
2022-08-24T06:08:44.297Z,9.45
2022-08-24T06:13:46.572Z,10.63
2022-08-24T06:18:55.924Z,10.32
2022-08-24T06:24:00.167Z,10.00
2022-08-24T06:29:02.414Z,9.98
2022-08-24T06:34:04.844Z,10.48
2022-08-24T06:39:09.559Z,10.75
2022-08-24T06:44:15.158Z,10.40
2022-08-24T06:49:24.803Z,9.73
2022-08-24T06:54:26.417Z,11.27
2022-08-24T06:59:29.030Z,8.98
2022-08-24T07:04:31.004Z,8.05
2022-08-24T07:10:00.488Z,9.27
2022-08-24T07:15:03.442Z,10.60
2022-08-24T07:20:11.658Z,9.50
2022-08-24T07:25:32.186Z,9.70
2022-08-24T07:30:34.198Z,9.82
2022-08-24T07:35:38.538Z,10.95
2022-08-24T07:41:05.067Z,10.90
2022-08-24T07:46:01.968Z,9.32
2022-08-24T07:51:11.622Z,9.40
2022-08-24T07:56:14.669Z,8.98
2022-08-24T08:01:23.455Z,9.23
2022-08-24T08:06:26.124Z,8.95
2022-08-24T08:11:32.409Z,10.48
2022-08-24T08:16:34.116Z,9.63
2022-08-24T08:22:03.159Z,8.05
2022-08-24T08:27:08.385Z,9.05
2022-08-24T08:32:16.835Z,9.00
2022-08-24T08:37:19.751Z,8.30
2022-08-24T08:42:33.477Z,9.35
2022-08-24T08:48:00.245Z,8.45
2022-08-24T08:53:44.107Z,7.68
2022-08-24T08:59:01.542Z,7.22
2022-08-24T09:04:21.713Z,7.28
2022-08-24T09:10:08.800Z,8.00
2022-08-24T09:15:29.145Z,6.55
2022-08-24T09:20:50.751Z,7.63
2022-08-24T09:25:54.866Z,8.93
2022-08-24T09:36:54.394Z,6.97
2022-08-24T09:42:13.951Z,5.97
2022-08-24T09:47:37.375Z,6.90
2022-08-24T09:52:51.139Z,6.65
2022-08-24T09:58:29.807Z,7.38
2022-08-24T10:03:54.793Z,7.75
2022-08-24T10:09:08.858Z,7.13
2022-08-24T10:14:46.669Z,7.53
2022-08-24T10:20:16.310Z,7.18
2022-08-24T10:25:39.467Z,6.70
2022-08-24T10:30:44.498Z,8.10
2022-08-24T10:36:10.844Z,8.65
2022-08-24T10:41:15.136Z,7.13
2022-08-24T10:46:25.766Z,7.38
2022-08-24T10:51:45.593Z,7.15
2022-08-24T10:56:58.872Z,7.20
2022-08-24T11:02:08.424Z,8.15
2022-08-24T11:07:19.152Z,7.07
2022-08-24T11:12:25.560Z,7.47
2022-08-24T11:17:29.699Z,7.28
2022-08-24T11:22:40.813Z,6.72
2022-08-24T11:27:52.066Z,7.18
2022-08-24T11:32:53.572Z,7.20
2022-08-24T11:38:07.432Z,7.43
2022-08-24T11:43:22.515Z,7.45
2022-08-24T11:48:27.462Z,8.20
2022-08-24T11:53:55.659Z,7.15
2022-08-24T11:59:03.582Z,7.82
2022-08-24T12:04:37.312Z,7.47
2022-08-24T12:10:05.786Z,7.40
2022-08-24T12:15:16.631Z,8.43
2022-08-24T12:20:29.788Z,9.20
2022-08-24T12:25:50.538Z,8.70
2022-08-24T12:30:52.945Z,11.05
2022-08-24T12:36:00.276Z,9.00
2022-08-24T12:41:14.622Z,7.25
2022-08-24T12:46:25.003Z,8.68
2022-08-24T12:51:56.458Z,7.15
2022-08-24T12:57:10.750Z,7.13
2022-08-24T13:02:15.222Z,7.63
2022-08-24T13:07:19.412Z,7.88
2022-08-24T13:12:42.720Z,7.88
2022-08-24T13:17:44.321Z,8.40
2022-08-24T13:23:13.025Z,7.65
2022-08-24T13:28:20.835Z,8.30
2022-08-24T13:33:28.287Z,7.78
2022-08-24T13:38:35.886Z,7.80
2022-08-24T13:44:09.701Z,8.45
2022-08-24T13:49:24.490Z,7.88
2022-08-24T13:54:33.705Z,7.50
2022-08-24T13:59:53.481Z,7.97
2022-08-24T14:05:27.144Z,7.63
2022-08-24T14:11:16.794Z,8.05
2022-08-24T14:16:57.273Z,8.07
2022-08-24T14:22:10.632Z,8.05
2022-08-24T14:27:35.010Z,8.32
2022-08-24T14:32:40.212Z,8.40
2022-08-24T14:37:58.400Z,8.48
2022-08-24T14:43:21.846Z,8.30
2022-08-24T14:48:38.309Z,8.13
2022-08-24T14:53:51.631Z,8.13
2022-08-24T14:59:14.580Z,8.65
2022-08-24T15:04:38.465Z,9.02
2022-08-24T15:09:42.735Z,8.90
2022-08-24T15:14:51.736Z,9.88
2022-08-24T15:20:00.825Z,10.77
2022-08-24T15:25:29.034Z,10.05
2022-08-24T15:30:33.823Z,10.45
2022-08-24T15:35:38.947Z,12.13
2022-08-24T15:40:40.695Z,13.60
2022-08-24T15:45:51.390Z,14.18
2022-08-24T15:50:55.015Z,15.15
2022-08-24T15:55:56.981Z,13.02
2022-08-24T16:01:30.864Z,11.45
2022-08-24T16:06:32.362Z,12.18
2022-08-24T16:11:47.175Z,11.35
2022-08-24T16:16:48.807Z,10.02
2022-08-24T16:22:00.941Z,8.55
2022-08-24T16:27:05.442Z,9.82
2022-08-24T16:32:30.274Z,10.00
2022-08-24T16:37:39.361Z,8.95
2022-08-24T16:42:41.082Z,8.68
2022-08-24T16:47:42.844Z,9.35
2022-08-24T16:52:44.391Z,9.13
2022-08-24T16:57:47.664Z,9.27
2022-08-24T17:02:49.718Z,8.93
2022-08-24T17:07:52.056Z,10.48
2022-08-24T17:12:54.041Z,9.43
2022-08-24T17:18:03.805Z,9.70
2022-08-24T17:23:06.102Z,8.82
2022-08-24T17:28:09.218Z,8.75
2022-08-24T17:33:10.951Z,8.77
2022-08-24T17:38:12.649Z,8.80
2022-08-24T17:43:15.190Z,8.77
2022-08-24T17:48:22.947Z,8.43
2022-08-24T17:53:24.548Z,8.35
2022-08-24T17:58:26.099Z,8.95
2022-08-24T18:03:27.646Z,9.60
2022-08-24T18:08:29.212Z,9.02
2022-08-24T18:13:31.007Z,9.82
2022-08-24T18:18:32.714Z,8.70
2022-08-24T18:23:34.795Z,9.32
2022-08-24T18:28:45.182Z,9.15
2022-08-24T18:33:46.781Z,8.82
2022-08-24T18:38:48.358Z,9.00
2022-08-24T18:43:49.942Z,9.38
2022-08-24T18:48:51.837Z,9.38
2022-08-24T18:54:06.588Z,10.05
2022-08-24T18:59:12.452Z,9.00
2022-08-24T19:04:14.327Z,9.52
2022-08-24T19:09:15.959Z,8.93
2022-08-24T19:14:17.755Z,9.73
2022-08-24T19:19:20.178Z,9.63
2022-08-24T19:24:25.625Z,9.73
2022-08-24T19:29:54.050Z,9.40
2022-08-24T19:34:49.980Z,9.63
2022-08-24T19:39:51.652Z,10.27
2022-08-24T19:45:13.839Z,10.45
2022-08-24T19:50:21.267Z,10.43
2022-08-24T19:55:23.042Z,10.95
2022-08-24T20:00:28.774Z,10.20
2022-08-24T20:05:30.751Z,10.52
2022-08-24T20:10:33.722Z,11.70
2022-08-24T20:15:35.874Z,10.90
2022-08-24T20:20:38.131Z,11.15
2022-08-24T20:25:40.482Z,11.85
2022-08-24T20:30:44.476Z,12.73
2022-08-24T20:35:46.798Z,12.50
2022-08-24T20:40:49.263Z,12.60
2022-08-24T20:45:51.869Z,11.88
2022-08-24T20:50:53.854Z,11.98
2022-08-24T20:55:56.498Z,11.55
2022-08-24T21:00:58.352Z,10.50
2022-08-24T21:06:00.688Z,10.57
2022-08-24T21:11:02.339Z,10.63
2022-08-24T21:16:06.654Z,10.20
2022-08-24T21:21:09.648Z,10.80
2022-08-24T21:26:13.269Z,9.70
2022-08-24T21:31:15.074Z,10.07
2022-08-24T21:36:16.917Z,10.23
2022-08-24T21:41:18.597Z,9.52
2022-08-24T21:46:21.644Z,10.23
2022-08-24T21:51:23.323Z,10.20
2022-08-24T21:56:27.855Z,9.70
2022-08-24T22:01:29.495Z,10.95
2022-08-24T22:06:32.057Z,9.30
2022-08-24T22:11:33.906Z,9.50
2022-08-24T22:16:37.326Z,9.43
2022-08-24T22:21:44.678Z,11.15
2022-08-24T22:26:49.408Z,10.63
2022-08-24T22:31:51.107Z,10.38
2022-08-24T22:36:53.274Z,10.02
2022-08-24T22:41:55.528Z,10.20
2022-08-24T22:46:59.237Z,10.55
2022-08-24T22:52:00.808Z,10.30
2022-08-24T22:57:03.393Z,10.82
2022-08-24T23:02:08.645Z,10.88
2022-08-24T23:07:11.196Z,10.73
2022-08-24T23:12:17.395Z,10.48
2022-08-24T23:17:20.040Z,10.70
2022-08-24T23:22:21.721Z,10.35
2022-08-24T23:27:23.329Z,10.73
2022-08-24T23:32:24.964Z,10.10
2022-08-24T23:37:26.648Z,10.73
2022-08-24T23:42:28.222Z,10.48
2022-08-24T23:47:29.807Z,11.13
2022-08-24T23:52:39.193Z,10.27
2022-08-24T23:57:40.842Z,10.88
